Time;durP1;ratioP1;P1;durP2;ratioP2;P2;SDS_P1;SDS_P2;PMS_P1;PMS_P2;Temp;Humidity;BMP_temperature;BMP_pressure;BME280_temperature;BME280_humidity;BME280_pressure;Samples;Min_cycle;Max_cycle;Signal;HPM_P1;HPM_P2
2022/03/14 00:00:52;;;;;;;;;;;1.90;99.90;;;;;;4192176;28;19932;-50
2022/03/14 00:02:54;;;;;;;;;;;2.00;99.90;;;;;;4193823;28;19950;-49
2022/03/14 00:04:56;;;;;;;;;;;2.10;99.90;;;;;;4193643;28;19993;-46
2022/03/14 00:06:59;;;;;;;;;;;2.20;99.90;;;;;;4193571;28;19924;-50
2022/03/14 00:09:06;;;;;;;;;;;2.30;99.90;;;;;;4193371;28;19928;-49
2022/03/14 00:11:10;;;;;;;;;;;2.30;99.90;;;;;;4199014;28;20396;-51
2022/03/14 00:13:16;;;;;;;;;;;2.20;99.90;;;;;;4193382;28;19925;-46
2022/03/14 00:15:18;;;;;;;;;;;2.10;99.90;;;;;;4193590;28;19978;-50
2022/03/14 00:17:21;;;;;;;;;;;2.10;99.90;;;;;;4193440;28;19924;-50
2022/03/14 00:19:23;;;;;;;;;;;2.10;99.90;;;;;;4192342;28;19971;-46
2022/03/14 00:21:26;;;;;;;;;;;2.10;99.90;;;;;;4193291;28;19938;-49
2022/03/14 00:23:28;;;;;;;;;;;2.10;99.90;;;;;;4191815;28;20408;-49
2022/03/14 00:25:30;;;;;;;;;;;2.20;99.90;;;;;;4193647;28;19935;-47
2022/03/14 00:27:32;;;;;;;;;;;2.30;99.90;;;;;;4193343;28;19932;-48
2022/03/14 00:29:34;;;;;;;;;;;2.20;99.90;;;;;;4193192;28;20388;-49
2022/03/14 00:31:36;;;;;;;;;;;2.20;99.90;;;;;;4192042;28;19928;-46
2022/03/14 00:33:39;;;;;;;;;;;2.10;99.90;;;;;;4193489;28;20300;-50
2022/03/14 00:35:41;;;;;;;;;;;2.10;99.90;;;;;;4176841;28;19974;-47
2022/03/14 00:37:43;;;;;;;;;;;2.00;99.90;;;;;;4193067;28;19951;-48
2022/03/14 00:39:46;;;;;;;;;;;1.90;99.90;;;;;;4192062;28;19928;-49
2022/03/14 00:41:49;;;;;;;;;;;1.90;99.90;;;;;;4193044;28;19978;-49
2022/03/14 00:43:51;;;;;;;;;;;1.80;99.90;;;;;;4193039;28;20381;-48
2022/03/14 00:45:53;;;;;;;;;;;1.80;99.90;;;;;;4193350;28;20320;-51
2022/03/14 00:47:55;;;;;;;;;;;1.70;99.90;;;;;;4192845;28;19928;-49
2022/03/14 00:49:57;;;;;;;;;;;1.80;99.90;;;;;;4193015;28;19970;-49
2022/03/14 00:51:59;;;;;;;;;;;1.90;99.90;;;;;;4193040;28;19932;-48
2022/03/14 00:54:02;;;;;;;;;;;1.90;99.90;;;;;;4193214;28;19943;-47
2022/03/14 00:56:04;;;;;;;;;;;2.00;99.90;;;;;;4193235;28;19925;-48
2022/03/14 00:58:07;;;;;;;;;;;2.10;99.90;;;;;;4192853;28;19982;-49
2022/03/14 01:00:09;;;;;;;;;;;2.10;99.90;;;;;;4193396;28;19931;-47
2022/03/14 01:02:11;;;;;;;;;;;2.20;99.90;;;;;;4193118;28;19925;-50
2022/03/14 01:04:13;;;;;;;;;;;2.20;99.90;;;;;;4193000;28;19925;-51
2022/03/14 01:06:15;;;;;;;;;;;2.20;99.90;;;;;;4192774;28;19924;-50
2022/03/14 01:08:17;;;;;;;;;;;2.10;99.90;;;;;;4196235;28;19970;-50
2022/03/14 01:10:20;;;;;;;;;;;2.10;99.90;;;;;;4196535;28;19974;-50
2022/03/14 01:12:22;;;;;;;;;;;2.00;99.90;;;;;;4195918;28;20039;-50
2022/03/14 01:14:25;;;;;;;;;;;2.00;99.90;;;;;;4196307;28;20404;-47
2022/03/14 01:16:27;;;;;;;;;;;2.00;99.90;;;;;;4196270;28;19935;-47
2022/03/14 01:18:29;;;;;;;;;;;1.90;99.90;;;;;;4195666;28;20026;-49
2022/03/14 01:20:32;;;;;;;;;;;1.90;99.90;;;;;;4196056;28;20457;-46
2022/03/14 01:22:34;;;;;;;;;;;2.00;99.90;;;;;;4196171;28;20140;-50
2022/03/14 01:24:38;;;;;;;;;;;2.00;99.90;;;;;;4194568;28;19929;-49
2022/03/14 01:26:40;;;;;;;;;;;1.90;99.90;;;;;;4196626;28;19987;-48
2022/03/14 01:28:43;;;;;;;;;;;1.80;99.90;;;;;;4194362;28;19979;-49
2022/03/14 01:30:45;;;;;;;;;;;1.80;99.90;;;;;;4196054;28;19928;-50
2022/03/14 01:32:47;;;;;;;;;;;1.90;99.90;;;;;;4195981;28;19950;-48
2022/03/14 01:34:49;;;;;;;;;;;1.80;99.90;;;;;;4196055;28;19929;-46
2022/03/14 01:36:51;;;;;;;;;;;1.80;99.90;;;;;;4195781;28;19925;-47
2022/03/14 01:38:54;;;;;;;;;;;1.90;99.90;;;;;;4194376;28;19924;-47
2022/03/14 01:40:55;;;;;;;;;;;1.80;99.90;;;;;;4195593;28;20110;-46
2022/03/14 01:42:57;;;;;;;;;;;1.90;99.90;;;;;;4195433;28;20392;-46
2022/03/14 01:45:00;;;;;;;;;;;1.90;99.90;;;;;;4195628;28;19929;-46
2022/03/14 01:47:02;;;;;;;;;;;1.90;99.90;;;;;;4195447;28;19928;-45
2022/03/14 01:49:04;;;;;;;;;;;2.00;99.90;;;;;;4195896;28;19924;-47
2022/03/14 01:51:06;;;;;;;;;;;2.00;99.90;;;;;;4195213;28;19940;-46
2022/03/14 01:53:08;;;;;;;;;;;2.00;99.90;;;;;;4195904;28;19975;-49
2022/03/14 01:55:11;;;;;;;;;;;2.00;99.90;;;;;;4195294;28;19966;-48
2022/03/14 01:57:14;;;;;;;;;;;2.10;99.90;;;;;;4194281;28;19936;-48
2022/03/14 01:59:16;;;;;;;;;;;2.10;99.90;;;;;;4194241;28;19931;-50
2022/03/14 02:01:21;;;;;;;;;;;2.10;99.90;;;;;;4195432;28;20355;-47
2022/03/14 02:03:23;;;;;;;;;;;2.00;99.90;;;;;;4195732;28;19929;-49
2022/03/14 02:05:27;;;;;;;;;;;2.00;99.90;;;;;;4195379;28;20293;-48
2022/03/14 02:07:31;;;;;;;;;;;2.10;99.90;;;;;;4194098;28;19974;-49
2022/03/14 02:09:32;;;;;;;;;;;2.10;99.90;;;;;;4195858;28;19928;-50
2022/03/14 02:11:34;;;;;;;;;;;2.00;99.90;;;;;;4193775;28;19925;-49
2022/03/14 02:13:36;;;;;;;;;;;2.10;99.90;;;;;;4195409;28;20304;-46
2022/03/14 02:15:39;;;;;;;;;;;2.00;99.90;;;;;;4195223;28;19932;-50
2022/03/14 02:17:41;;;;;;;;;;;2.00;99.90;;;;;;4194782;28;19963;-46
2022/03/14 02:19:43;;;;;;;;;;;2.10;99.90;;;;;;4195469;28;19928;-48
2022/03/14 02:21:45;;;;;;;;;;;2.10;99.90;;;;;;4194877;28;19959;-48
2022/03/14 02:23:47;;;;;;;;;;;2.00;99.90;;;;;;4194405;28;19935;-47
2022/03/14 02:25:50;;;;;;;;;;;1.90;99.90;;;;;;4195071;28;19935;-49
2022/03/14 02:27:52;;;;;;;;;;;1.80;99.90;;;;;;4194962;28;19924;-48
2022/03/14 02:29:54;;;;;;;;;;;1.70;99.90;;;;;;4195500;28;19932;-48
2022/03/14 02:31:56;;;;;;;;;;;1.60;99.90;;;;;;4194517;28;19970;-48
2022/03/14 02:33:58;;;;;;;;;;;1.60;99.90;;;;;;4195214;28;19925;-50
2022/03/14 02:36:00;;;;;;;;;;;1.60;99.90;;;;;;4194764;28;20383;-46
2022/03/14 02:38:02;;;;;;;;;;;1.60;99.90;;;;;;4194963;28;19968;-47
2022/03/14 02:40:05;;;;;;;;;;;1.60;99.90;;;;;;4195518;28;20023;-48
2022/03/14 02:42:07;;;;;;;;;;;1.60;99.90;;;;;;4194528;28;19985;-50
2022/03/14 02:44:09;;;;;;;;;;;1.60;99.90;;;;;;4195041;28;19928;-47
2022/03/14 02:46:10;;;;;;;;;;;1.60;99.90;;;;;;4195121;28;19958;-45
2022/03/14 02:48:13;;;;;;;;;;;1.60;99.90;;;;;;4194800;28;20039;-46
2022/03/14 02:50:15;;;;;;;;;;;1.70;99.90;;;;;;4194531;28;20431;-46
2022/03/14 02:52:17;;;;;;;;;;;1.80;99.90;;;;;;4194624;28;19933;-46
2022/03/14 02:54:19;;;;;;;;;;;1.70;99.90;;;;;;4194887;28;20273;-47
2022/03/14 02:56:21;;;;;;;;;;;1.70;99.90;;;;;;4194609;28;19925;-48
2022/03/14 02:58:25;;;;;;;;;;;1.70;99.90;;;;;;4194943;28;20372;-49
2022/03/14 03:00:27;;;;;;;;;;;1.70;99.90;;;;;;4194219;28;19935;-46
2022/03/14 03:02:33;;;;;;;;;;;1.80;99.90;;;;;;4194338;28;19928;-47
2022/03/14 03:04:35;;;;;;;;;;;1.90;99.90;;;;;;4191198;28;19924;-46
2022/03/14 03:06:37;;;;;;;;;;;1.90;99.90;;;;;;4194157;28;19974;-50
2022/03/14 03:08:43;;;;;;;;;;;1.90;99.90;;;;;;4194226;28;19924;-47
2022/03/14 03:10:47;;;;;;;;;;;1.90;99.90;;;;;;4193963;28;19931;-47
2022/03/14 03:12:49;;;;;;;;;;;1.90;99.90;;;;;;4194195;28;19971;-46
2022/03/14 03:14:51;;;;;;;;;;;2.00;99.90;;;;;;4193942;28;19929;-47
2022/03/14 03:16:53;;;;;;;;;;;2.00;99.90;;;;;;4194226;28;20408;-51
2022/03/14 03:18:55;;;;;;;;;;;2.10;99.90;;;;;;4193802;28;19924;-48
2022/03/14 03:20:57;;;;;;;;;;;2.20;99.90;;;;;;4194199;28;19990;-50
2022/03/14 03:22:59;;;;;;;;;;;2.20;99.90;;;;;;4194655;28;19935;-49
2022/03/14 03:25:01;;;;;;;;;;;2.20;99.90;;;;;;4194049;28;19929;-48
2022/03/14 03:27:03;;;;;;;;;;;2.20;99.90;;;;;;4194328;28;20331;-48
2022/03/14 03:29:06;;;;;;;;;;;2.20;99.90;;;;;;4193734;28;20023;-48
2022/03/14 03:31:09;;;;;;;;;;;2.20;99.90;;;;;;4193730;28;20038;-46
2022/03/14 03:33:11;;;;;;;;;;;2.10;99.90;;;;;;4194200;28;19974;-49
2022/03/14 03:35:13;;;;;;;;;;;2.10;99.90;;;;;;4194006;28;19924;-49
2022/03/14 03:37:15;;;;;;;;;;;2.00;99.90;;;;;;4193887;28;20244;-47
2022/03/14 03:39:17;;;;;;;;;;;2.00;99.90;;;;;;4193945;28;20009;-48
2022/03/14 03:41:18;;;;;;;;;;;2.10;99.90;;;;;;4193484;28;19929;-47
2022/03/14 03:43:21;;;;;;;;;;;2.20;99.90;;;;;;4194012;28;19936;-47
2022/03/14 03:45:23;;;;;;;;;;;2.20;99.90;;;;;;4192363;28;20454;-49
2022/03/14 03:47:25;;;;;;;;;;;2.30;99.90;;;;;;4183278;28;20015;-50
2022/03/14 03:49:27;;;;;;;;;;;2.30;99.90;;;;;;4193865;28;19931;-49
2022/03/14 03:51:29;;;;;;;;;;;2.20;99.90;;;;;;4193122;28;20420;-49
2022/03/14 03:53:31;;;;;;;;;;;2.20;99.90;;;;;;4177722;28;19925;-47
2022/03/14 03:55:34;;;;;;;;;;;2.20;99.90;;;;;;4191839;28;19932;-48
2022/03/14 03:57:36;;;;;;;;;;;2.20;99.90;;;;;;4193692;28;19925;-49
2022/03/14 03:59:38;;;;;;;;;;;2.30;99.90;;;;;;4193400;28;19972;-50
2022/03/14 04:01:40;;;;;;;;;;;2.30;99.90;;;;;;4193766;28;20148;-48
2022/03/14 04:03:42;;;;;;;;;;;2.30;99.90;;;;;;4192414;28;19929;-49
2022/03/14 04:05:44;;;;;;;;;;;2.20;99.90;;;;;;4193593;28;19956;-50
2022/03/14 04:07:46;;;;;;;;;;;2.30;99.90;;;;;;4192270;28;20456;-49
2022/03/14 04:09:55;;;;;;;;;;;2.20;99.90;;;;;;4193643;28;19974;-46
2022/03/14 04:11:57;;;;;;;;;;;2.20;99.90;;;;;;4184691;28;20365;-47
2022/03/14 04:14:03;;;;;;;;;;;2.20;99.90;;;;;;4198238;28;19928;-48
2022/03/14 04:16:05;;;;;;;;;;;2.20;99.90;;;;;;4193211;28;20433;-48
2022/03/14 04:18:07;;;;;;;;;;;2.20;99.90;;;;;;4193278;28;20031;-49
2022/03/14 04:20:11;;;;;;;;;;;2.20;99.90;;;;;;4193265;28;19978;-49
2022/03/14 04:22:15;;;;;;;;;;;2.20;99.90;;;;;;4193582;28;20187;-49
2022/03/14 04:24:18;;;;;;;;;;;2.10;99.90;;;;;;4183955;28;19989;-49
2022/03/14 04:26:20;;;;;;;;;;;2.10;99.90;;;;;;4193221;28;19933;-50
2022/03/14 04:28:22;;;;;;;;;;;2.20;99.90;;;;;;4193677;28;19964;-48
2022/03/14 04:30:25;;;;;;;;;;;2.20;99.90;;;;;;4193041;28;19924;-48
2022/03/14 04:32:27;;;;;;;;;;;2.20;99.90;;;;;;4193470;28;19948;-49
2022/03/14 04:34:30;;;;;;;;;;;2.20;99.90;;;;;;4193178;28;19932;-47
2022/03/14 04:36:32;;;;;;;;;;;2.10;99.90;;;;;;4193301;28;20372;-47
2022/03/14 04:38:37;;;;;;;;;;;2.00;99.90;;;;;;4193924;28;19924;-50
2022/03/14 04:40:39;;;;;;;;;;;2.00;99.90;;;;;;4193403;28;20395;-48
2022/03/14 04:42:41;;;;;;;;;;;1.90;99.90;;;;;;4195655;28;19929;-46
2022/03/14 04:44:44;;;;;;;;;;;1.90;99.90;;;;;;4196836;28;19924;-49
2022/03/14 04:46:46;;;;;;;;;;;1.90;99.90;;;;;;4196318;28;20400;-47
2022/03/14 04:48:48;;;;;;;;;;;1.90;99.90;;;;;;4195550;28;20013;-51
2022/03/14 04:50:50;;;;;;;;;;;1.90;99.90;;;;;;4196830;28;20011;-51
2022/03/14 04:52:52;;;;;;;;;;;1.90;99.90;;;;;;4196340;28;19924;-48
2022/03/14 04:54:55;;;;;;;;;;;1.90;99.90;;;;;;4196627;28;20392;-47
2022/03/14 04:56:57;;;;;;;;;;;2.00;99.90;;;;;;4196626;28;19942;-47
2022/03/14 04:58:59;;;;;;;;;;;2.00;99.90;;;;;;4196457;28;20331;-48
2022/03/14 05:01:01;;;;;;;;;;;2.10;99.90;;;;;;4196466;28;19928;-48
2022/03/14 05:03:04;;;;;;;;;;;2.10;99.90;;;;;;4197048;28;20051;-48
2022/03/14 05:05:08;;;;;;;;;;;2.10;99.90;;;;;;4197052;28;19932;-48
2022/03/14 05:07:10;;;;;;;;;;;2.10;99.90;;;;;;4196659;28;19936;-48
2022/03/14 05:09:12;;;;;;;;;;;2.10;99.90;;;;;;4195148;28;19925;-48
2022/03/14 05:11:14;;;;;;;;;;;2.10;99.90;;;;;;4195958;28;19924;-49
2022/03/14 05:13:17;;;;;;;;;;;2.10;99.90;;;;;;4196317;28;19973;-46
2022/03/14 05:15:19;;;;;;;;;;;2.20;99.90;;;;;;4195927;28;19931;-48
2022/03/14 05:17:21;;;;;;;;;;;2.30;99.90;;;;;;4195951;28;19992;-47
2022/03/14 05:19:23;;;;;;;;;;;2.20;99.90;;;;;;4195926;28;19924;-46
2022/03/14 05:21:25;;;;;;;;;;;2.30;99.90;;;;;;4196105;28;19924;-51
2022/03/14 05:23:28;;;;;;;;;;;2.30;99.90;;;;;;4196010;28;19970;-49
2022/03/14 05:25:30;;;;;;;;;;;2.20;99.90;;;;;;4195875;28;19925;-51
2022/03/14 05:27:32;;;;;;;;;;;2.20;99.90;;;;;;4196122;28;19935;-50
2022/03/14 05:29:34;;;;;;;;;;;2.20;99.90;;;;;;4195110;28;19954;-48
2022/03/14 05:31:36;;;;;;;;;;;2.20;99.90;;;;;;4195742;28;19924;-49
2022/03/14 05:33:37;;;;;;;;;;;2.10;99.90;;;;;;4194180;28;19929;-48
2022/03/14 05:35:39;;;;;;;;;;;2.10;99.90;;;;;;4195329;28;19925;-49
2022/03/14 05:37:42;;;;;;;;;;;2.10;99.90;;;;;;4196124;28;20014;-48
2022/03/14 05:39:44;;;;;;;;;;;2.10;99.90;;;;;;4195592;28;20021;-47
2022/03/14 05:41:46;;;;;;;;;;;2.10;99.90;;;;;;4196279;28;19935;-48
2022/03/14 05:43:48;;;;;;;;;;;2.00;99.90;;;;;;4195528;28;20084;-47
2022/03/14 05:45:50;;;;;;;;;;;2.00;99.90;;;;;;4195653;28;19924;-47
2022/03/14 05:47:51;;;;;;;;;;;2.00;99.90;;;;;;4195767;28;19928;-47
2022/03/14 05:49:53;;;;;;;;;;;2.00;99.90;;;;;;4195161;28;19982;-49
2022/03/14 05:51:55;;;;;;;;;;;2.00;99.90;;;;;;4197359;28;19931;-50
2022/03/14 05:53:57;;;;;;;;;;;2.00;99.90;;;;;;4195258;28;19928;-48
2022/03/14 05:55:59;;;;;;;;;;;2.10;99.90;;;;;;4195852;28;19929;-48
2022/03/14 05:58:01;;;;;;;;;;;2.20;99.90;;;;;;4195575;28;20304;-47
2022/03/14 06:00:04;;;;;;;;;;;2.20;99.90;;;;;;4195378;28;20315;-50
2022/03/14 06:02:06;;;;;;;;;;;2.30;99.90;;;;;;4195952;28;19982;-50
2022/03/14 06:04:08;;;;;;;;;;;2.30;99.90;;;;;;4195220;28;20195;-50
2022/03/14 06:06:13;;;;;;;;;;;2.30;99.90;;;;;;4195355;28;19924;-48
2022/03/14 06:08:18;;;;;;;;;;;2.40;99.90;;;;;;4195358;28;20377;-48
2022/03/14 06:10:20;;;;;;;;;;;2.50;99.90;;;;;;4194570;28;20396;-46
2022/03/14 06:12:24;;;;;;;;;;;2.50;99.90;;;;;;4195524;28;19928;-46
2022/03/14 06:14:27;;;;;;;;;;;2.50;99.90;;;;;;4195305;28;19932;-46
2022/03/14 06:16:28;;;;;;;;;;;2.60;99.90;;;;;;4195308;28;20002;-46
2022/03/14 06:18:30;;;;;;;;;;;2.60;99.90;;;;;;4194648;28;20264;-49
2022/03/14 06:20:32;;;;;;;;;;;2.50;99.90;;;;;;4194800;28;19928;-49
2022/03/14 06:22:37;;;;;;;;;;;2.60;99.90;;;;;;4195495;28;19967;-49
2022/03/14 06:24:39;;;;;;;;;;;2.60;99.90;;;;;;4194863;28;19970;-51
2022/03/14 06:26:41;;;;;;;;;;;2.60;99.90;;;;;;4194161;28;19968;-47
2022/03/14 06:28:43;;;;;;;;;;;2.60;99.90;;;;;;4187020;28;19935;-48
2022/03/14 06:30:45;;;;;;;;;;;2.60;99.90;;;;;;4195235;28;19924;-47
2022/03/14 06:32:48;;;;;;;;;;;2.60;99.90;;;;;;4195314;28;19936;-49
2022/03/14 06:34:50;;;;;;;;;;;2.70;99.90;;;;;;4194547;28;19924;-47
2022/03/14 06:36:52;;;;;;;;;;;2.70;99.90;;;;;;4195077;28;19964;-48
2022/03/14 06:38:57;;;;;;;;;;;2.70;99.90;;;;;;4192504;28;19924;-51
2022/03/14 06:40:59;;;;;;;;;;;2.70;99.90;;;;;;4195147;28;19929;-50
2022/03/14 06:43:01;;;;;;;;;;;2.70;99.90;;;;;;4194730;28;20477;-50
2022/03/14 06:45:04;;;;;;;;;;;2.80;99.90;;;;;;4194853;28;19928;-50
2022/03/14 06:47:07;;;;;;;;;;;3.00;99.90;;;;;;4194397;28;20453;-48
2022/03/14 06:49:11;;;;;;;;;;;3.10;99.90;;;;;;4194692;28;19924;-51
2022/03/14 06:51:13;;;;;;;;;;;3.20;99.90;;;;;;4195021;28;19924;-48
2022/03/14 06:53:15;;;;;;;;;;;3.30;99.90;;;;;;4193425;28;20039;-52
2022/03/14 06:55:18;;;;;;;;;;;3.20;99.90;;;;;;4194462;28;20383;-48
2022/03/14 06:57:19;;;;;;;;;;;3.30;99.90;;;;;;4194121;28;20446;-51
2022/03/14 06:59:21;;;;;;;;;;;3.40;99.90;;;;;;4194368;28;19924;-49
2022/03/14 07:01:24;;;;;;;;;;;3.50;99.90;;;;;;4193755;28;19928;-48
2022/03/14 07:03:27;;;;;;;;;;;3.60;99.90;;;;;;4193938;28;19935;-49
2022/03/14 07:05:29;;;;;;;;;;;3.70;99.90;;;;;;4194904;28;20007;-48
2022/03/14 07:07:31;;;;;;;;;;;3.80;99.90;;;;;;4194787;28;19928;-48
2022/03/14 07:09:35;;;;;;;;;;;4.00;99.90;;;;;;4194214;28;19981;-50
2022/03/14 07:11:37;;;;;;;;;;;4.00;99.90;;;;;;4194658;28;19967;-50
2022/03/14 07:13:39;;;;;;;;;;;4.10;99.90;;;;;;4194189;28;19929;-48
2022/03/14 07:15:41;;;;;;;;;;;4.10;99.90;;;;;;4194236;28;19924;-48
2022/03/14 07:17:43;;;;;;;;;;;4.20;99.90;;;;;;4194044;28;19928;-49
2022/03/14 07:19:46;;;;;;;;;;;4.30;99.90;;;;;;4193985;28;19982;-47
2022/03/14 07:21:48;;;;;;;;;;;4.40;99.90;;;;;;4194346;28;19925;-51
2022/03/14 07:23:50;;;;;;;;;;;4.40;99.90;;;;;;4194328;28;19929;-51
2022/03/14 07:25:52;;;;;;;;;;;4.50;99.90;;;;;;4194116;28;19932;-49
2022/03/14 07:27:55;;;;;;;;;;;4.50;99.90;;;;;;4194208;28;19964;-51
2022/03/14 07:29:57;;;;;;;;;;;4.50;99.90;;;;;;4194158;28;19924;-48
2022/03/14 07:31:58;;;;;;;;;;;4.40;99.90;;;;;;4189871;28;19931;-47
2022/03/14 07:34:01;;;;;;;;;;;4.40;99.90;;;;;;4193933;28;19924;-49
2022/03/14 07:36:03;;;;;;;;;;;4.40;99.90;;;;;;4194104;28;19954;-49
2022/03/14 07:38:05;;;;;;;;;;;4.40;99.90;;;;;;4193529;28;19932;-49
2022/03/14 07:40:08;;;;;;;;;;;4.40;99.90;;;;;;4192735;28;20019;-48
2022/03/14 07:42:10;;;;;;;;;;;4.50;99.90;;;;;;4193836;28;19975;-48
2022/03/14 07:44:12;;;;;;;;;;;4.50;99.90;;;;;;4192527;28;19973;-50
2022/03/14 07:46:13;;;;;;;;;;;4.60;99.90;;;;;;4194039;28;20389;-50
2022/03/14 07:48:15;;;;;;;;;;;4.90;99.90;;;;;;4193290;28;20012;-49
2022/03/14 07:50:18;;;;;;;;;;;5.10;99.90;;;;;;4193658;28;19928;-52
2022/03/14 07:52:23;;;;;;;;;;;5.20;99.90;;;;;;4193032;28;20324;-49
2022/03/14 07:54:25;;;;;;;;;;;5.40;99.90;;;;;;4193621;28;19974;-48
2022/03/14 07:56:27;;;;;;;;;;;5.60;99.90;;;;;;4193665;28;20689;-50
2022/03/14 07:58:29;;;;;;;;;;;5.80;99.90;;;;;;4193597;28;19967;-51
2022/03/14 08:00:32;;;;;;;;;;;6.00;99.90;;;;;;4193726;28;20024;-47
2022/03/14 08:02:34;;;;;;;;;;;6.20;99.90;;;;;;4193416;28;19929;-50
2022/03/14 08:04:38;;;;;;;;;;;6.40;99.90;;;;;;4193795;28;19924;-48
2022/03/14 08:06:43;;;;;;;;;;;6.60;99.90;;;;;;4193533;28;19925;-48
2022/03/14 08:08:45;;;;;;;;;;;6.80;99.90;;;;;;4193815;28;19925;-50
2022/03/14 08:10:47;;;;;;;;;;;6.90;99.90;;;;;;4193470;28;19925;-51
2022/03/14 08:12:49;;;;;;;;;;;7.10;99.90;;;;;;4193292;28;20412;-50
2022/03/14 08:14:51;;;;;;;;;;;7.30;99.90;;;;;;4193912;28;20029;-50
2022/03/14 08:16:53;;;;;;;;;;;7.40;99.90;;;;;;4193565;28;19968;-51
2022/03/14 08:18:55;;;;;;;;;;;7.60;99.90;;;;;;4192740;28;19932;-48
2022/03/14 08:20:57;;;;;;;;;;;7.70;99.90;;;;;;4193920;28;19925;-52
2022/03/14 08:23:00;;;;;;;;;;;7.80;99.90;;;;;;4193246;28;19935;-52
2022/03/14 08:25:02;;;;;;;;;;;7.90;99.90;;;;;;4193318;28;19942;-48
2022/03/14 08:27:04;;;;;;;;;;;8.20;99.90;;;;;;4193550;28;20391;-48
2022/03/14 08:29:06;;;;;;;;;;;8.40;99.90;;;;;;4193352;28;19928;-48
2022/03/14 08:31:09;;;;;;;;;;;8.40;99.90;;;;;;4193617;28;19967;-52
2022/03/14 08:33:11;;;;;;;;;;;8.40;99.90;;;;;;4193458;28;19925;-49
2022/03/14 08:35:17;;;;;;;;;;;8.50;99.90;;;;;;4193369;28;19959;-49
2022/03/14 08:37:19;;;;;;;;;;;8.70;99.90;;;;;;4193704;28;19963;-51
2022/03/14 08:39:22;;;;;;;;;;;9.00;99.90;;;;;;4192818;28;20402;-49
2022/03/14 08:41:24;;;;;;;;;;;9.20;99.90;;;;;;4193576;28;19976;-50
2022/03/14 08:43:26;;;;;;;;;;;9.30;99.90;;;;;;4193211;28;19968;-50
2022/03/14 08:45:28;;;;;;;;;;;9.30;99.90;;;;;;4193430;28;19966;-49
2022/03/14 08:47:30;;;;;;;;;;;9.60;99.90;;;;;;4193013;28;19994;-50
2022/03/14 08:49:32;;;;;;;;;;;9.80;99.90;;;;;;4193023;28;19928;-50
2022/03/14 08:51:34;;;;;;;;;;;9.80;99.90;;;;;;4193207;28;19943;-49
2022/03/14 08:53:36;;;;;;;;;;;10.00;99.90;;;;;;4192661;28;19932;-48
2022/03/14 08:55:38;;;;;;;;;;;10.10;99.20;;;;;;4193275;28;19939;-50
2022/03/14 08:57:41;;;;;;;;;;;10.20;98.80;;;;;;4192811;28;19929;-50
2022/03/14 08:59:44;;;;;;;;;;;10.40;98.30;;;;;;4191963;28;20027;-51
2022/03/14 09:01:46;;;;;;;;;;;10.50;97.80;;;;;;4192895;28;19936;-48
2022/03/14 09:03:48;;;;;;;;;;;10.70;97.50;;;;;;4193039;28;19928;-52
2022/03/14 09:05:50;;;;;;;;;;;10.80;97.00;;;;;;4193263;28;19978;-52
2022/03/14 09:07:52;;;;;;;;;;;11.10;96.80;;;;;;4192931;28;19994;-51
2022/03/14 09:09:59;;;;;;;;;;;11.20;96.10;;;;;;4192934;28;19928;-49
2022/03/14 09:12:01;;;;;;;;;;;11.20;95.90;;;;;;4193014;28;19928;-50
2022/03/14 09:14:03;;;;;;;;;;;11.20;94.50;;;;;;4192979;28;20396;-50
2022/03/14 09:16:08;;;;;;;;;;;11.40;94.40;;;;;;4193143;28;19929;-49
2022/03/14 09:18:10;;;;;;;;;;;11.50;93.50;;;;;;4192506;28;20301;-50
2022/03/14 09:20:13;;;;;;;;;;;11.70;94.00;;;;;;4192961;28;19928;-52
2022/03/14 09:22:18;;;;;;;;;;;11.80;93.80;;;;;;4192610;28;19925;-51
2022/03/14 09:24:21;;;;;;;;;;;12.10;93.60;;;;;;4193057;28;19936;-49
2022/03/14 09:26:23;;;;;;;;;;;12.40;93.70;;;;;;4193100;28;19928;-52
2022/03/14 09:28:25;;;;;;;;;;;12.50;93.00;;;;;;4194689;28;19978;-51
2022/03/14 09:30:28;;;;;;;;;;;12.60;92.70;;;;;;4195846;28;20271;-52
2022/03/14 09:32:30;;;;;;;;;;;12.70;92.30;;;;;;4196136;28;19928;-52
2022/03/14 09:34:31;;;;;;;;;;;12.50;91.30;;;;;;4196028;28;19951;-50
2022/03/14 09:36:33;;;;;;;;;;;12.60;93.00;;;;;;4195590;28;19935;-51
2022/03/14 09:38:35;;;;;;;;;;;12.90;91.50;;;;;;4195715;28;19954;-51
2022/03/14 09:40:37;;;;;;;;;;;13.10;93.10;;;;;;4196093;28;19932;-51
2022/03/14 09:42:41;;;;;;;;;;;13.10;91.80;;;;;;4195277;28;19924;-52
2022/03/14 09:44:45;;;;;;;;;;;13.30;91.80;;;;;;4196010;28;19955;-50
2022/03/14 09:46:48;;;;;;;;;;;13.20;91.20;;;;;;4195590;28;20399;-51
2022/03/14 09:48:51;;;;;;;;;;;13.20;90.80;;;;;;4195766;28;19975;-52
2022/03/14 09:50:54;;;;;;;;;;;13.10;88.80;;;;;;4195665;28;19925;-52
2022/03/14 09:52:56;;;;;;;;;;;13.20;88.40;;;;;;4195460;28;19928;-50
2022/03/14 09:54:58;;;;;;;;;;;13.40;90.00;;;;;;4195837;28;19959;-52
2022/03/14 09:57:01;;;;;;;;;;;13.50;88.50;;;;;;4195695;28;20011;-51
2022/03/14 09:59:04;;;;;;;;;;;13.20;86.90;;;;;;4195550;28;19971;-51
2022/03/14 10:01:07;;;;;;;;;;;13.40;89.80;;;;;;4195511;28;20015;-53
2022/03/14 10:03:10;;;;;;;;;;;13.60;88.70;;;;;;4195569;28;19936;-52
2022/03/14 10:05:13;;;;;;;;;;;13.60;86.70;;;;;;4195708;28;19992;-51
2022/03/14 10:07:16;;;;;;;;;;;13.70;87.80;;;;;;4195457;28;20019;-50
2022/03/14 10:09:18;;;;;;;;;;;14.20;89.00;;;;;;4195279;28;19974;-51
2022/03/14 10:11:20;;;;;;;;;;;14.10;84.10;;;;;;4195422;28;20404;-51
2022/03/14 10:13:22;;;;;;;;;;;14.20;90.30;;;;;;4195181;28;19925;-49
2022/03/14 10:15:25;;;;;;;;;;;14.60;87.90;;;;;;4195421;28;19928;-52
2022/03/14 10:17:27;;;;;;;;;;;14.60;82.40;;;;;;4195016;28;20019;-51
2022/03/14 10:19:30;;;;;;;;;;;14.50;79.60;;;;;;4195168;28;20518;-53
2022/03/14 10:21:37;;;;;;;;;;;14.40;82.10;;;;;;4191564;28;20380;-52
2022/03/14 10:23:41;;;;;;;;;;;14.60;85.20;;;;;;4194882;28;20412;-52
2022/03/14 10:25:43;;;;;;;;;;;14.10;80.90;;;;;;4195200;28;20529;-51
2022/03/14 10:27:49;;;;;;;;;;;13.80;79.20;;;;;;4195068;28;19929;-52
2022/03/14 10:29:51;;;;;;;;;;;14.20;83.20;;;;;;4195199;28;19925;-52
2022/03/14 10:31:56;;;;;;;;;;;14.50;81.20;;;;;;4194937;28;19924;-51
2022/03/14 10:34:05;;;;;;;;;;;14.80;82.30;;;;;;4195136;28;19924;-52
2022/03/14 10:36:07;;;;;;;;;;;14.80;79.80;;;;;;4195240;28;19928;-52
2022/03/14 10:38:11;;;;;;;;;;;15.00;80.70;;;;;;4194984;28;19928;-51
2022/03/14 10:40:13;;;;;;;;;;;14.90;78.50;;;;;;4194095;28;19929;-52
2022/03/14 10:42:15;;;;;;;;;;;14.70;78.20;;;;;;4194738;28;19928;-53
2022/03/14 10:44:24;;;;;;;;;;;15.30;81.10;;;;;;4195009;28;19936;-52
2022/03/14 10:46:26;;;;;;;;;;;15.20;79.50;;;;;;4194910;28;20316;-53
2022/03/14 10:48:32;;;;;;;;;;;15.70;83.90;;;;;;4194476;28;20452;-52
2022/03/14 10:50:38;;;;;;;;;;;15.90;77.00;;;;;;4194715;28;19947;-52
2022/03/14 10:52:40;;;;;;;;;;;15.90;78.00;;;;;;4194508;28;19932;-50
2022/03/14 10:54:43;;;;;;;;;;;16.20;77.80;;;;;;4193525;28;19951;-53
2022/03/14 10:57:01;;;;;;;;;;;16.30;78.30;;;;;;4194934;28;20260;-51
2022/03/14 10:59:06;;;;;;;;;;;16.60;76.40;;;;;;4194425;28;19935;-51
2022/03/14 11:01:09;;;;;;;;;;;16.40;73.40;;;;;;4186881;28;19929;-52
2022/03/14 11:03:11;;;;;;;;;;;16.30;81.80;;;;;;4194603;28;19928;-53
2022/03/14 11:05:20;;;;;;;;;;;16.60;76.40;;;;;;4189191;28;19925;-52
2022/03/14 11:07:31;;;;;;;;;;;16.20;71.70;;;;;;4188043;28;19931;-53
2022/03/14 11:09:37;;;;;;;;;;;16.20;75.50;;;;;;4190905;28;19976;-53
2022/03/14 11:11:39;;;;;;;;;;;16.70;76.80;;;;;;4189991;28;19928;-52
2022/03/14 11:13:42;;;;;;;;;;;16.30;71.40;;;;;;4194451;28;19931;-52
2022/03/14 11:15:44;;;;;;;;;;;16.50;72.30;;;;;;4186506;28;19928;-52
2022/03/14 11:17:48;;;;;;;;;;;17.00;75.30;;;;;;4192451;28;19928;-51
2022/03/14 11:20:06;;;;;;;;;;;17.20;73.80;;;;;;4189766;28;20414;-51
2022/03/14 11:22:12;;;;;;;;;;;16.60;69.90;;;;;;4192980;28;19928;-52
2022/03/14 11:24:14;;;;;;;;;;;16.40;72.70;;;;;;4192899;28;19974;-53
2022/03/14 11:26:24;;;;;;;;;;;16.90;72.40;;;;;;4187634;28;19979;-52
2022/03/14 11:28:28;;;;;;;;;;;17.40;71.80;;;;;;4191013;28;20101;-53
2022/03/14 11:30:31;;;;;;;;;;;17.50;73.10;;;;;;4191080;28;19960;-53
2022/03/14 11:32:34;;;;;;;;;;;17.60;74.50;;;;;;4188945;28;19929;-50
2022/03/14 11:34:36;;;;;;;;;;;17.90;70.30;;;;;;4190341;28;19929;-50
2022/03/14 11:36:39;;;;;;;;;;;17.10;68.50;;;;;;4191902;28;19925;-49
2022/03/14 11:38:42;;;;;;;;;;;17.30;75.30;;;;;;4186623;28;19932;-50
2022/03/14 11:40:44;;;;;;;;;;;17.30;72.80;;;;;;4191583;28;20293;-49
2022/03/14 11:42:46;;;;;;;;;;;17.50;74.50;;;;;;4189158;28;19929;-49
2022/03/14 11:44:48;;;;;;;;;;;16.60;69.20;;;;;;4194065;28;20012;-49
2022/03/14 11:46:52;;;;;;;;;;;16.60;73.80;;;;;;4189264;28;20024;-49
2022/03/14 11:49:08;;;;;;;;;;;17.00;70.70;;;;;;4189568;28;20246;-50
2022/03/14 11:51:11;;;;;;;;;;;16.80;69.10;;;;;;4191463;28;19944;-50
2022/03/14 11:53:20;;;;;;;;;;;17.50;72.60;;;;;;4194896;28;19924;-50
2022/03/14 11:55:23;;;;;;;;;;;17.90;70.90;;;;;;4191798;28;20335;-47
2022/03/14 11:57:43;;;;;;;;;;;17.20;69.00;;;;;;4192894;28;19935;-48
2022/03/14 11:59:45;;;;;;;;;;;16.90;70.70;;;;;;4187990;28;19928;-50
2022/03/14 12:01:50;;;;;;;;;;;16.60;72.30;;;;;;4193007;28;19928;-48